sensor_id;sensor_type;location;lat;lon;timestamp;P1;durP1;ratioP1;P2;durP2;ratioP2
4563;SDS011;2294;51.818;8.484;2022-12-04T00:01:01;42.80;;;18.90;;
4563;SDS011;2294;51.818;8.484;2022-12-04T00:03:30;47.40;;;21.03;;
4563;SDS011;2294;51.818;8.484;2022-12-04T00:06:03;41.30;;;19.20;;
4563;SDS011;2294;51.818;8.484;2022-12-04T00:08:31;46.07;;;19.37;;
4563;SDS011;2294;51.818;8.484;2022-12-04T00:11:00;48.03;;;19.37;;
4563;SDS011;2294;51.818;8.484;2022-12-04T00:13:28;44.17;;;19.77;;
4563;SDS011;2294;51.818;8.484;2022-12-04T00:15:55;42.33;;;19.77;;
4563;SDS011;2294;51.818;8.484;2022-12-04T00:18:23;44.17;;;19.50;;
4563;SDS011;2294;51.818;8.484;2022-12-04T00:20:50;45.27;;;19.37;;
4563;SDS011;2294;51.818;8.484;2022-12-04T00:23:17;44.13;;;20.70;;
4563;SDS011;2294;51.818;8.484;2022-12-04T00:25:44;47.27;;;20.70;;
4563;SDS011;2294;51.818;8.484;2022-12-04T00:28:14;51.33;;;20.00;;
4563;SDS011;2294;51.818;8.484;2022-12-04T00:30:41;47.47;;;20.43;;
4563;SDS011;2294;51.818;8.484;2022-12-04T00:33:09;41.43;;;17.73;;
4563;SDS011;2294;51.818;8.484;2022-12-04T00:35:36;43.07;;;19.77;;
4563;SDS011;2294;51.818;8.484;2022-12-04T00:38:03;42.80;;;19.70;;
4563;SDS011;2294;51.818;8.484;2022-12-04T00:40:30;43.07;;;18.30;;
4563;SDS011;2294;51.818;8.484;2022-12-04T00:42:57;44.17;;;19.00;;
4563;SDS011;2294;51.818;8.484;2022-12-04T00:45:25;44.03;;;18.77;;
4563;SDS011;2294;51.818;8.484;2022-12-04T00:47:52;44.47;;;18.23;;
4563;SDS011;2294;51.818;8.484;2022-12-04T00:50:19;36.47;;;16.97;;
4563;SDS011;2294;51.818;8.484;2022-12-04T00:52:46;41.60;;;18.57;;
4563;SDS011;2294;51.818;8.484;2022-12-04T00:55:13;43.43;;;18.37;;
4563;SDS011;2294;51.818;8.484;2022-12-04T00:57:40;42.77;;;18.20;;
4563;SDS011;2294;51.818;8.484;2022-12-04T01:00:07;48.40;;;19.53;;
4563;SDS011;2294;51.818;8.484;2022-12-04T01:02:36;41.73;;;18.83;;
4563;SDS011;2294;51.818;8.484;2022-12-04T01:05:03;43.33;;;18.27;;
4563;SDS011;2294;51.818;8.484;2022-12-04T01:07:31;43.77;;;19.57;;
4563;SDS011;2294;51.818;8.484;2022-12-04T01:09:58;46.47;;;20.17;;
4563;SDS011;2294;51.818;8.484;2022-12-04T01:12:25;39.70;;;19.13;;
4563;SDS011;2294;51.818;8.484;2022-12-04T01:14:51;45.57;;;17.77;;
4563;SDS011;2294;51.818;8.484;2022-12-04T01:17:18;47.90;;;19.73;;
4563;SDS011;2294;51.818;8.484;2022-12-04T01:19:47;40.70;;;18.97;;
4563;SDS011;2294;51.818;8.484;2022-12-04T01:22:13;44.27;;;17.47;;
4563;SDS011;2294;51.818;8.484;2022-12-04T01:24:40;50.20;;;19.57;;
4563;SDS011;2294;51.818;8.484;2022-12-04T01:27:07;44.03;;;20.30;;
4563;SDS011;2294;51.818;8.484;2022-12-04T01:29:34;39.60;;;19.60;;
4563;SDS011;2294;51.818;8.484;2022-12-04T01:32:01;51.80;;;20.70;;
4563;SDS011;2294;51.818;8.484;2022-12-04T01:34:28;44.73;;;18.97;;
4563;SDS011;2294;51.818;8.484;2022-12-04T01:36:56;40.50;;;18.93;;
4563;SDS011;2294;51.818;8.484;2022-12-04T01:39:23;48.33;;;18.93;;
4563;SDS011;2294;51.818;8.484;2022-12-04T01:41:50;43.90;;;19.43;;
4563;SDS011;2294;51.818;8.484;2022-12-04T01:44:18;40.70;;;19.57;;
4563;SDS011;2294;51.818;8.484;2022-12-04T01:46:49;38.80;;;18.27;;
4563;SDS011;2294;51.818;8.484;2022-12-04T01:49:18;42.83;;;18.17;;
4563;SDS011;2294;51.818;8.484;2022-12-04T01:51:51;41.37;;;19.03;;
4563;SDS011;2294;51.818;8.484;2022-12-04T01:54:23;48.87;;;18.70;;
4563;SDS011;2294;51.818;8.484;2022-12-04T01:56:54;41.63;;;20.37;;
4563;SDS011;2294;51.818;8.484;2022-12-04T01:59:26;43.00;;;20.30;;
4563;SDS011;2294;51.818;8.484;2022-12-04T02:01:58;40.43;;;18.13;;
4563;SDS011;2294;51.818;8.484;2022-12-04T02:04:29;37.33;;;17.80;;
4563;SDS011;2294;51.818;8.484;2022-12-04T02:06:56;42.53;;;18.30;;
4563;SDS011;2294;51.818;8.484;2022-12-04T02:09:25;49.20;;;17.53;;
4563;SDS011;2294;51.818;8.484;2022-12-04T02:11:55;40.37;;;19.30;;
4563;SDS011;2294;51.818;8.484;2022-12-04T02:14:30;41.43;;;17.90;;
4563;SDS011;2294;51.818;8.484;2022-12-04T02:17:05;53.67;;;19.70;;
4563;SDS011;2294;51.818;8.484;2022-12-04T02:19:52;42.07;;;18.57;;
4563;SDS011;2294;51.818;8.484;2022-12-04T02:22:29;43.43;;;17.03;;
4563;SDS011;2294;51.818;8.484;2022-12-04T02:25:11;43.07;;;16.37;;
4563;SDS011;2294;51.818;8.484;2022-12-04T02:30:33;37.87;;;17.40;;
4563;SDS011;2294;51.818;8.484;2022-12-04T02:33:04;37.07;;;17.43;;
4563;SDS011;2294;51.818;8.484;2022-12-04T02:35:42;46.03;;;19.10;;
4563;SDS011;2294;51.818;8.484;2022-12-04T02:38:13;47.23;;;18.53;;
4563;SDS011;2294;51.818;8.484;2022-12-04T02:40:49;47.80;;;17.83;;
4563;SDS011;2294;51.818;8.484;2022-12-04T02:43:21;47.07;;;17.70;;
4563;SDS011;2294;51.818;8.484;2022-12-04T02:45:53;37.83;;;17.67;;
4563;SDS011;2294;51.818;8.484;2022-12-04T02:48:24;42.90;;;17.57;;
4563;SDS011;2294;51.818;8.484;2022-12-04T02:50:52;40.50;;;17.57;;
4563;SDS011;2294;51.818;8.484;2022-12-04T02:53:25;37.87;;;16.93;;
4563;SDS011;2294;51.818;8.484;2022-12-04T02:55:56;38.33;;;17.77;;
4563;SDS011;2294;51.818;8.484;2022-12-04T02:58:29;38.50;;;16.20;;
4563;SDS011;2294;51.818;8.484;2022-12-04T03:01:00;43.40;;;17.00;;
4563;SDS011;2294;51.818;8.484;2022-12-04T03:03:43;39.77;;;16.87;;
4563;SDS011;2294;51.818;8.484;2022-12-04T03:06:15;42.93;;;17.70;;
4563;SDS011;2294;51.818;8.484;2022-12-04T03:08:45;43.43;;;18.90;;
4563;SDS011;2294;51.818;8.484;2022-12-04T03:11:15;43.97;;;16.77;;
4563;SDS011;2294;51.818;8.484;2022-12-04T03:13:44;38.30;;;16.77;;
4563;SDS011;2294;51.818;8.484;2022-12-04T03:16:16;35.53;;;16.77;;
4563;SDS011;2294;51.818;8.484;2022-12-04T03:18:48;37.13;;;16.70;;
4563;SDS011;2294;51.818;8.484;2022-12-04T03:21:19;39.17;;;16.30;;
4563;SDS011;2294;51.818;8.484;2022-12-04T03:23:53;40.60;;;15.00;;
4563;SDS011;2294;51.818;8.484;2022-12-04T03:26:26;43.53;;;15.20;;
4563;SDS011;2294;51.818;8.484;2022-12-04T03:28:59;47.83;;;18.37;;
4563;SDS011;2294;51.818;8.484;2022-12-04T03:31:36;35.80;;;15.97;;
4563;SDS011;2294;51.818;8.484;2022-12-04T03:34:09;38.30;;;15.40;;
4563;SDS011;2294;51.818;8.484;2022-12-04T03:36:42;37.27;;;17.43;;
4563;SDS011;2294;51.818;8.484;2022-12-04T03:39:18;35.43;;;14.20;;
4563;SDS011;2294;51.818;8.484;2022-12-04T03:41:52;38.03;;;16.93;;
4563;SDS011;2294;51.818;8.484;2022-12-04T03:44:24;32.47;;;14.33;;
4563;SDS011;2294;51.818;8.484;2022-12-04T03:46:57;37.40;;;15.47;;
4563;SDS011;2294;51.818;8.484;2022-12-04T03:49:30;34.30;;;14.37;;
4563;SDS011;2294;51.818;8.484;2022-12-04T03:52:03;35.37;;;16.53;;
4563;SDS011;2294;51.818;8.484;2022-12-04T03:54:37;32.47;;;15.67;;
4563;SDS011;2294;51.818;8.484;2022-12-04T03:57:11;41.63;;;15.10;;
4563;SDS011;2294;51.818;8.484;2022-12-04T03:59:42;30.10;;;12.97;;
4563;SDS011;2294;51.818;8.484;2022-12-04T04:02:15;33.53;;;14.70;;
4563;SDS011;2294;51.818;8.484;2022-12-04T04:04:46;27.87;;;14.03;;
4563;SDS011;2294;51.818;8.484;2022-12-04T04:07:17;32.07;;;14.03;;
4563;SDS011;2294;51.818;8.484;2022-12-04T04:09:48;29.80;;;13.60;;
4563;SDS011;2294;51.818;8.484;2022-12-04T04:12:19;34.23;;;13.40;;
4563;SDS011;2294;51.818;8.484;2022-12-04T04:14:50;36.77;;;14.33;;
4563;SDS011;2294;51.818;8.484;2022-12-04T04:17:40;28.57;;;13.10;;
4563;SDS011;2294;51.818;8.484;2022-12-04T04:20:29;35.53;;;14.37;;
4563;SDS011;2294;51.818;8.484;2022-12-04T04:23:18;27.77;;;12.10;;
4563;SDS011;2294;51.818;8.484;2022-12-04T04:26:04;36.10;;;13.77;;
4563;SDS011;2294;51.818;8.484;2022-12-04T04:28:34;33.03;;;13.70;;
4563;SDS011;2294;51.818;8.484;2022-12-04T04:31:07;28.00;;;11.77;;
4563;SDS011;2294;51.818;8.484;2022-12-04T04:33:44;31.70;;;12.00;;
4563;SDS011;2294;51.818;8.484;2022-12-04T04:36:19;21.50;;;10.97;;
4563;SDS011;2294;51.818;8.484;2022-12-04T04:38:57;25.60;;;11.73;;
4563;SDS011;2294;51.818;8.484;2022-12-04T04:41:32;22.93;;;10.40;;
4563;SDS011;2294;51.818;8.484;2022-12-04T04:44:04;30.33;;;11.30;;
4563;SDS011;2294;51.818;8.484;2022-12-04T04:46:43;24.47;;;10.13;;
4563;SDS011;2294;51.818;8.484;2022-12-04T04:49:12;20.60;;;11.17;;
4563;SDS011;2294;51.818;8.484;2022-12-04T04:51:41;27.97;;;10.50;;
4563;SDS011;2294;51.818;8.484;2022-12-04T04:54:10;23.57;;;9.50;;
4563;SDS011;2294;51.818;8.484;2022-12-04T04:56:40;20.13;;;10.10;;
4563;SDS011;2294;51.818;8.484;2022-12-04T04:59:07;20.80;;;9.47;;
4563;SDS011;2294;51.818;8.484;2022-12-04T05:01:34;21.97;;;10.87;;
4563;SDS011;2294;51.818;8.484;2022-12-04T05:04:04;18.67;;;10.57;;
4563;SDS011;2294;51.818;8.484;2022-12-04T05:06:32;20.07;;;10.10;;
4563;SDS011;2294;51.818;8.484;2022-12-04T05:08:59;25.03;;;10.50;;
4563;SDS011;2294;51.818;8.484;2022-12-04T05:11:26;22.57;;;10.03;;
4563;SDS011;2294;51.818;8.484;2022-12-04T05:13:53;18.67;;;8.93;;
4563;SDS011;2294;51.818;8.484;2022-12-04T05:16:20;21.90;;;9.37;;
4563;SDS011;2294;51.818;8.484;2022-12-04T05:18:47;21.77;;;9.93;;
4563;SDS011;2294;51.818;8.484;2022-12-04T05:21:30;25.50;;;11.50;;
4563;SDS011;2294;51.818;8.484;2022-12-04T05:23:57;19.17;;;9.40;;
4563;SDS011;2294;51.818;8.484;2022-12-04T05:26:24;24.07;;;10.10;;
4563;SDS011;2294;51.818;8.484;2022-12-04T05:28:51;21.63;;;10.37;;
4563;SDS011;2294;51.818;8.484;2022-12-04T05:31:19;24.70;;;11.07;;
4563;SDS011;2294;51.818;8.484;2022-12-04T05:33:45;24.20;;;10.90;;
4563;SDS011;2294;51.818;8.484;2022-12-04T05:36:12;23.30;;;10.73;;
4563;SDS011;2294;51.818;8.484;2022-12-04T05:38:40;25.33;;;11.47;;
4563;SDS011;2294;51.818;8.484;2022-12-04T05:41:07;20.17;;;9.50;;
4563;SDS011;2294;51.818;8.484;2022-12-04T05:43:34;17.30;;;9.00;;
4563;SDS011;2294;51.818;8.484;2022-12-04T05:46:01;18.53;;;9.57;;
4563;SDS011;2294;51.818;8.484;2022-12-04T05:48:30;17.97;;;9.00;;
4563;SDS011;2294;51.818;8.484;2022-12-04T05:50:58;24.50;;;10.13;;
4563;SDS011;2294;51.818;8.484;2022-12-04T05:53:25;22.03;;;8.97;;
4563;SDS011;2294;51.818;8.484;2022-12-04T05:55:54;14.67;;;8.63;;
4563;SDS011;2294;51.818;8.484;2022-12-04T05:58:22;23.33;;;10.30;;
4563;SDS011;2294;51.818;8.484;2022-12-04T06:00:49;20.63;;;9.87;;
4563;SDS011;2294;51.818;8.484;2022-12-04T06:03:16;22.40;;;10.83;;
4563;SDS011;2294;51.818;8.484;2022-12-04T06:05:43;22.07;;;10.57;;
4563;SDS011;2294;51.818;8.484;2022-12-04T06:08:10;18.40;;;9.67;;
4563;SDS011;2294;51.818;8.484;2022-12-04T06:10:37;25.23;;;10.50;;
4563;SDS011;2294;51.818;8.484;2022-12-04T06:13:05;20.67;;;9.57;;
4563;SDS011;2294;51.818;8.484;2022-12-04T06:15:35;20.97;;;9.00;;
4563;SDS011;2294;51.818;8.484;2022-12-04T06:18:03;17.40;;;8.73;;
4563;SDS011;2294;51.818;8.484;2022-12-04T06:20:30;18.30;;;7.97;;
4563;SDS011;2294;51.818;8.484;2022-12-04T06:22:58;18.40;;;8.60;;
4563;SDS011;2294;51.818;8.484;2022-12-04T06:25:24;17.90;;;8.37;;
4563;SDS011;2294;51.818;8.484;2022-12-04T06:27:51;23.83;;;11.10;;
4563;SDS011;2294;51.818;8.484;2022-12-04T06:30:19;19.30;;;9.10;;
4563;SDS011;2294;51.818;8.484;2022-12-04T06:32:46;17.03;;;9.10;;
4563;SDS011;2294;51.818;8.484;2022-12-04T06:35:13;20.87;;;9.93;;
4563;SDS011;2294;51.818;8.484;2022-12-04T06:37:40;20.63;;;9.70;;
4563;SDS011;2294;51.818;8.484;2022-12-04T06:40:07;19.07;;;9.10;;
4563;SDS011;2294;51.818;8.484;2022-12-04T06:42:35;18.97;;;9.73;;
4563;SDS011;2294;51.818;8.484;2022-12-04T06:45:02;22.17;;;8.70;;
4563;SDS011;2294;51.818;8.484;2022-12-04T06:47:30;21.53;;;9.90;;
4563;SDS011;2294;51.818;8.484;2022-12-04T06:49:59;21.03;;;10.13;;
4563;SDS011;2294;51.818;8.484;2022-12-04T06:52:25;19.90;;;9.23;;
4563;SDS011;2294;51.818;8.484;2022-12-04T06:54:52;19.43;;;9.40;;
4563;SDS011;2294;51.818;8.484;2022-12-04T06:57:19;17.27;;;9.90;;
4563;SDS011;2294;51.818;8.484;2022-12-04T06:59:46;17.50;;;9.37;;
4563;SDS011;2294;51.818;8.484;2022-12-04T07:02:13;16.03;;;8.40;;
4563;SDS011;2294;51.818;8.484;2022-12-04T07:04:41;20.37;;;9.40;;
4563;SDS011;2294;51.818;8.484;2022-12-04T07:07:08;18.07;;;8.30;;
4563;SDS011;2294;51.818;8.484;2022-12-04T07:09:35;23.93;;;11.00;;
4563;SDS011;2294;51.818;8.484;2022-12-04T07:12:02;24.33;;;10.47;;
4563;SDS011;2294;51.818;8.484;2022-12-04T07:14:29;22.90;;;10.17;;
4563;SDS011;2294;51.818;8.484;2022-12-04T07:16:56;16.70;;;9.10;;
4563;SDS011;2294;51.818;8.484;2022-12-04T07:19:23;19.97;;;9.63;;
4563;SDS011;2294;51.818;8.484;2022-12-04T07:21:51;17.23;;;8.87;;
4563;SDS011;2294;51.818;8.484;2022-12-04T07:24:18;23.77;;;9.70;;
4563;SDS011;2294;51.818;8.484;2022-12-04T07:26:45;19.60;;;9.83;;
4563;SDS011;2294;51.818;8.484;2022-12-04T07:29:12;22.33;;;10.07;;
4563;SDS011;2294;51.818;8.484;2022-12-04T07:31:39;15.03;;;9.20;;
4563;SDS011;2294;51.818;8.484;2022-12-04T07:34:08;19.17;;;9.77;;
4563;SDS011;2294;51.818;8.484;2022-12-04T07:36:37;20.80;;;9.60;;
4563;SDS011;2294;51.818;8.484;2022-12-04T07:39:06;17.57;;;8.43;;
4563;SDS011;2294;51.818;8.484;2022-12-04T07:41:33;24.83;;;10.23;;
4563;SDS011;2294;51.818;8.484;2022-12-04T07:44:00;16.33;;;8.70;;
4563;SDS011;2294;51.818;8.484;2022-12-04T07:46:27;17.73;;;9.07;;
4563;SDS011;2294;51.818;8.484;2022-12-04T07:48:54;15.23;;;8.60;;
4563;SDS011;2294;51.818;8.484;2022-12-04T07:51:23;21.10;;;10.47;;
4563;SDS011;2294;51.818;8.484;2022-12-04T07:53:52;18.80;;;10.33;;
4563;SDS011;2294;51.818;8.484;2022-12-04T07:56:23;15.30;;;8.93;;
4563;SDS011;2294;51.818;8.484;2022-12-04T07:58:50;22.30;;;10.17;;
4563;SDS011;2294;51.818;8.484;2022-12-04T08:01:17;19.30;;;8.97;;
4563;SDS011;2294;51.818;8.484;2022-12-04T08:03:48;22.60;;;9.90;;
4563;SDS011;2294;51.818;8.484;2022-12-04T08:06:17;17.80;;;9.80;;
4563;SDS011;2294;51.818;8.484;2022-12-04T08:08:44;18.00;;;9.23;;
4563;SDS011;2294;51.818;8.484;2022-12-04T08:11:12;16.20;;;9.10;;
4563;SDS011;2294;51.818;8.484;2022-12-04T08:13:42;17.40;;;8.90;;
4563;SDS011;2294;51.818;8.484;2022-12-04T08:16:10;17.90;;;9.27;;
4563;SDS011;2294;51.818;8.484;2022-12-04T08:18:37;15.57;;;9.13;;
4563;SDS011;2294;51.818;8.484;2022-12-04T08:21:05;25.87;;;9.80;;
4563;SDS011;2294;51.818;8.484;2022-12-04T08:23:34;17.97;;;9.50;;
4563;SDS011;2294;51.818;8.484;2022-12-04T08:26:01;18.57;;;10.30;;
4563;SDS011;2294;51.818;8.484;2022-12-04T08:28:29;18.03;;;10.27;;
4563;SDS011;2294;51.818;8.484;2022-12-04T08:31:01;18.83;;;8.93;;
4563;SDS011;2294;51.818;8.484;2022-12-04T08:33:29;17.00;;;9.23;;
4563;SDS011;2294;51.818;8.484;2022-12-04T08:35:56;18.20;;;9.63;;
4563;SDS011;2294;51.818;8.484;2022-12-04T08:38:23;26.87;;;12.87;;
4563;SDS011;2294;51.818;8.484;2022-12-04T08:40:50;18.70;;;10.50;;
4563;SDS011;2294;51.818;8.484;2022-12-04T08:43:17;18.27;;;9.97;;
4563;SDS011;2294;51.818;8.484;2022-12-04T08:45:44;16.83;;;9.07;;
4563;SDS011;2294;51.818;8.484;2022-12-04T08:48:21;18.73;;;9.47;;
4563;SDS011;2294;51.818;8.484;2022-12-04T08:50:48;18.47;;;9.03;;
4563;SDS011;2294;51.818;8.484;2022-12-04T08:53:15;17.27;;;9.20;;
4563;SDS011;2294;51.818;8.484;2022-12-04T08:55:42;20.87;;;9.20;;
4563;SDS011;2294;51.818;8.484;2022-12-04T08:58:09;15.50;;;8.93;;
4563;SDS011;2294;51.818;8.484;2022-12-04T09:00:36;16.27;;;10.30;;
4563;SDS011;2294;51.818;8.484;2022-12-04T09:03:03;19.90;;;9.47;;
4563;SDS011;2294;51.818;8.484;2022-12-04T09:05:31;18.93;;;9.30;;
4563;SDS011;2294;51.818;8.484;2022-12-04T09:07:58;16.40;;;9.00;;
4563;SDS011;2294;51.818;8.484;2022-12-04T09:10:25;19.43;;;9.53;;
4563;SDS011;2294;51.818;8.484;2022-12-04T09:12:52;20.77;;;10.80;;
4563;SDS011;2294;51.818;8.484;2022-12-04T09:15:19;15.87;;;9.07;;
4563;SDS011;2294;51.818;8.484;2022-12-04T09:17:46;15.33;;;8.40;;
4563;SDS011;2294;51.818;8.484;2022-12-04T09:20:13;22.30;;;9.73;;
4563;SDS011;2294;51.818;8.484;2022-12-04T09:22:41;16.77;;;8.93;;
4563;SDS011;2294;51.818;8.484;2022-12-04T09:25:09;17.40;;;8.73;;
4563;SDS011;2294;51.818;8.484;2022-12-04T09:27:36;19.00;;;9.30;;
4563;SDS011;2294;51.818;8.484;2022-12-04T09:30:05;19.87;;;9.07;;
4563;SDS011;2294;51.818;8.484;2022-12-04T09:32:33;18.70;;;8.87;;
4563;SDS011;2294;51.818;8.484;2022-12-04T09:35:00;21.50;;;9.17;;
4563;SDS011;2294;51.818;8.484;2022-12-04T09:37:27;23.73;;;11.10;;
4563;SDS011;2294;51.818;8.484;2022-12-04T09:39:55;17.87;;;9.43;;
4563;SDS011;2294;51.818;8.484;2022-12-04T09:42:30;20.23;;;9.43;;
4563;SDS011;2294;51.818;8.484;2022-12-04T09:45:07;14.00;;;8.43;;
4563;SDS011;2294;51.818;8.484;2022-12-04T09:47:39;16.67;;;8.63;;
4563;SDS011;2294;51.818;8.484;2022-12-04T09:50:10;19.83;;;9.70;;
4563;SDS011;2294;51.818;8.484;2022-12-04T09:52:49;20.47;;;9.57;;
4563;SDS011;2294;51.818;8.484;2022-12-04T09:55:23;22.07;;;10.30;;
4563;SDS011;2294;51.818;8.484;2022-12-04T09:57:53;21.80;;;10.27;;
4563;SDS011;2294;51.818;8.484;2022-12-04T10:00:23;18.20;;;9.80;;
4563;SDS011;2294;51.818;8.484;2022-12-04T10:02:53;16.97;;;8.97;;
4563;SDS011;2294;51.818;8.484;2022-12-04T10:05:25;23.87;;;9.40;;
4563;SDS011;2294;51.818;8.484;2022-12-04T10:11:26;21.67;;;9.67;;
4563;SDS011;2294;51.818;8.484;2022-12-04T10:16:56;21.90;;;9.77;;
4563;SDS011;2294;51.818;8.484;2022-12-04T10:19:42;20.43;;;10.60;;
4563;SDS011;2294;51.818;8.484;2022-12-04T10:22:17;22.83;;;9.73;;
4563;SDS011;2294;51.818;8.484;2022-12-04T10:24:51;20.60;;;9.87;;
4563;SDS011;2294;51.818;8.484;2022-12-04T10:27:22;23.60;;;9.87;;
4563;SDS011;2294;51.818;8.484;2022-12-04T10:29:53;19.23;;;9.90;;
4563;SDS011;2294;51.818;8.484;2022-12-04T10:32:24;21.60;;;9.80;;
4563;SDS011;2294;51.818;8.484;2022-12-04T10:34:56;21.67;;;10.23;;
4563;SDS011;2294;51.818;8.484;2022-12-04T10:37:40;19.40;;;10.40;;
4563;SDS011;2294;51.818;8.484;2022-12-04T10:40:12;19.87;;;10.00;;
4563;SDS011;2294;51.818;8.484;2022-12-04T10:42:45;19.50;;;9.80;;
4563;SDS011;2294;51.818;8.484;2022-12-04T10:45:18;27.97;;;13.13;;
4563;SDS011;2294;51.818;8.484;2022-12-04T10:47:47;23.27;;;10.70;;
4563;SDS011;2294;51.818;8.484;2022-12-04T10:50:16;22.13;;;9.97;;
4563;SDS011;2294;51.818;8.484;2022-12-04T10:52:44;21.00;;;11.03;;
4563;SDS011;2294;51.818;8.484;2022-12-04T10:55:11;22.90;;;10.53;;
4563;SDS011;2294;51.818;8.484;2022-12-04T10:57:39;18.37;;;10.70;;
4563;SDS011;2294;51.818;8.484;2022-12-04T11:00:26;19.70;;;10.70;;
4563;SDS011;2294;51.818;8.484;2022-12-04T11:02:55;26.40;;;11.57;;
4563;SDS011;2294;51.818;8.484;2022-12-04T11:05:26;23.40;;;10.60;;
4563;SDS011;2294;51.818;8.484;2022-12-04T11:07:56;26.23;;;11.00;;
4563;SDS011;2294;51.818;8.484;2022-12-04T11:10:27;20.80;;;10.10;;
4563;SDS011;2294;51.818;8.484;2022-12-04T11:12:58;22.53;;;11.50;;
4563;SDS011;2294;51.818;8.484;2022-12-04T11:15:28;20.53;;;10.30;;
4563;SDS011;2294;51.818;8.484;2022-12-04T11:18:05;18.97;;;8.90;;
4563;SDS011;2294;51.818;8.484;2022-12-04T11:20:33;18.77;;;9.97;;
4563;SDS011;2294;51.818;8.484;2022-12-04T11:23:00;26.47;;;12.90;;
4563;SDS011;2294;51.818;8.484;2022-12-04T11:25:27;36.77;;;18.70;;
4563;SDS011;2294;51.818;8.484;2022-12-04T11:27:59;24.60;;;10.60;;
4563;SDS011;2294;51.818;8.484;2022-12-04T11:30:30;23.07;;;10.90;;
4563;SDS011;2294;51.818;8.484;2022-12-04T11:32:59;22.53;;;10.80;;
4563;SDS011;2294;51.818;8.484;2022-12-04T11:35:28;21.07;;;10.03;;
4563;SDS011;2294;51.818;8.484;2022-12-04T11:37:57;22.20;;;9.70;;
4563;SDS011;2294;51.818;8.484;2022-12-04T11:40:27;21.70;;;11.20;;
4563;SDS011;2294;51.818;8.484;2022-12-04T11:42:56;23.87;;;10.07;;
4563;SDS011;2294;51.818;8.484;2022-12-04T11:45:26;16.53;;;9.70;;
4563;SDS011;2294;51.818;8.484;2022-12-04T11:47:54;19.87;;;10.87;;
4563;SDS011;2294;51.818;8.484;2022-12-04T11:50:26;23.77;;;11.43;;
4563;SDS011;2294;51.818;8.484;2022-12-04T11:53:01;24.70;;;12.53;;
4563;SDS011;2294;51.818;8.484;2022-12-04T11:55:39;21.60;;;10.07;;
4563;SDS011;2294;51.818;8.484;2022-12-04T11:58:32;23.63;;;11.83;;
4563;SDS011;2294;51.818;8.484;2022-12-04T12:01:15;22.87;;;11.77;;
4563;SDS011;2294;51.818;8.484;2022-12-04T12:03:55;28.40;;;11.83;;
4563;SDS011;2294;51.818;8.484;2022-12-04T12:06:42;26.03;;;13.50;;
4563;SDS011;2294;51.818;8.484;2022-12-04T12:09:22;23.83;;;13.43;;
4563;SDS011;2294;51.818;8.484;2022-12-04T12:11:57;28.47;;;14.50;;
4563;SDS011;2294;51.818;8.484;2022-12-04T12:14:31;29.40;;;12.80;;
4563;SDS011;2294;51.818;8.484;2022-12-04T12:17:10;23.83;;;12.47;;
4563;SDS011;2294;51.818;8.484;2022-12-04T12:22:40;32.00;;;14.50;;
4563;SDS011;2294;51.818;8.484;2022-12-04T12:25:29;35.43;;;16.00;;
4563;SDS011;2294;51.818;8.484;2022-12-04T12:28:08;31.33;;;14.70;;
4563;SDS011;2294;51.818;8.484;2022-12-04T12:30:44;34.77;;;15.63;;
4563;SDS011;2294;51.818;8.484;2022-12-04T12:33:22;34.03;;;15.53;;
4563;SDS011;2294;51.818;8.484;2022-12-04T12:35:57;32.30;;;16.10;;
4563;SDS011;2294;51.818;8.484;2022-12-04T12:38:28;32.93;;;15.30;;
4563;SDS011;2294;51.818;8.484;2022-12-04T12:41:00;36.23;;;16.20;;
4563;SDS011;2294;51.818;8.484;2022-12-04T12:43:31;33.37;;;16.17;;
4563;SDS011;2294;51.818;8.484;2022-12-04T12:46:01;32.67;;;15.43;;
4563;SDS011;2294;51.818;8.484;2022-12-04T12:48:34;36.80;;;17.50;;
4563;SDS011;2294;51.818;8.484;2022-12-04T12:51:09;41.07;;;17.40;;
4563;SDS011;2294;51.818;8.484;2022-12-04T12:53:46;41.63;;;18.27;;
4563;SDS011;2294;51.818;8.484;2022-12-04T12:56:17;37.37;;;16.23;;
4563;SDS011;2294;51.818;8.484;2022-12-04T12:58:49;37.10;;;17.70;;
4563;SDS011;2294;51.818;8.484;2022-12-04T13:01:20;41.47;;;17.73;;
4563;SDS011;2294;51.818;8.484;2022-12-04T13:03:52;47.70;;;16.90;;
4563;SDS011;2294;51.818;8.484;2022-12-04T13:06:26;42.47;;;17.37;;
4563;SDS011;2294;51.818;8.484;2022-12-04T13:08:59;35.57;;;18.87;;
4563;SDS011;2294;51.818;8.484;2022-12-04T13:11:31;41.37;;;18.70;;
4563;SDS011;2294;51.818;8.484;2022-12-04T13:14:00;40.87;;;18.10;;
4563;SDS011;2294;51.818;8.484;2022-12-04T13:16:30;43.23;;;19.90;;
4563;SDS011;2294;51.818;8.484;2022-12-04T13:19:03;34.43;;;16.30;;
4563;SDS011;2294;51.818;8.484;2022-12-04T13:21:36;34.13;;;14.37;;
4563;SDS011;2294;51.818;8.484;2022-12-04T13:27:04;45.07;;;17.57;;
4563;SDS011;2294;51.818;8.484;2022-12-04T13:29:39;39.30;;;14.20;;
4563;SDS011;2294;51.818;8.484;2022-12-04T13:32:27;35.93;;;16.70;;
4563;SDS011;2294;51.818;8.484;2022-12-04T13:35:07;40.27;;;17.10;;
4563;SDS011;2294;51.818;8.484;2022-12-04T13:37:49;35.10;;;15.73;;
4563;SDS011;2294;51.818;8.484;2022-12-04T13:40:40;45.43;;;18.93;;
4563;SDS011;2294;51.818;8.484;2022-12-04T13:43:16;29.30;;;13.47;;
4563;SDS011;2294;51.818;8.484;2022-12-04T13:45:50;39.67;;;17.70;;
4563;SDS011;2294;51.818;8.484;2022-12-04T13:51:24;45.03;;;18.23;;
4563;SDS011;2294;51.818;8.484;2022-12-04T13:54:17;42.60;;;18.83;;
4563;SDS011;2294;51.818;8.484;2022-12-04T13:56:52;50.17;;;18.30;;
4563;SDS011;2294;51.818;8.484;2022-12-04T14:02:16;37.20;;;17.27;;
4563;SDS011;2294;51.818;8.484;2022-12-04T14:04:51;39.37;;;17.67;;
4563;SDS011;2294;51.818;8.484;2022-12-04T14:07:23;33.40;;;15.70;;
4563;SDS011;2294;51.818;8.484;2022-12-04T14:09:54;36.03;;;16.53;;
4563;SDS011;2294;51.818;8.484;2022-12-04T14:12:23;39.43;;;15.57;;
4563;SDS011;2294;51.818;8.484;2022-12-04T14:14:53;39.00;;;17.77;;
4563;SDS011;2294;51.818;8.484;2022-12-04T14:17:23;36.63;;;16.90;;
4563;SDS011;2294;51.818;8.484;2022-12-04T14:19:52;34.80;;;17.67;;
4563;SDS011;2294;51.818;8.484;2022-12-04T14:22:26;42.90;;;19.50;;
4563;SDS011;2294;51.818;8.484;2022-12-04T14:25:05;39.47;;;17.37;;
4563;SDS011;2294;51.818;8.484;2022-12-04T14:27:45;47.90;;;19.47;;
4563;SDS011;2294;51.818;8.484;2022-12-04T14:30:16;39.43;;;17.47;;
4563;SDS011;2294;51.818;8.484;2022-12-04T14:32:45;40.63;;;18.47;;
4563;SDS011;2294;51.818;8.484;2022-12-04T14:35:14;40.07;;;18.00;;
4563;SDS011;2294;51.818;8.484;2022-12-04T14:37:44;45.60;;;18.73;;
4563;SDS011;2294;51.818;8.484;2022-12-04T14:40:18;41.50;;;17.83;;
4563;SDS011;2294;51.818;8.484;2022-12-04T14:42:47;41.23;;;19.60;;
4563;SDS011;2294;51.818;8.484;2022-12-04T14:45:18;44.20;;;19.80;;
4563;SDS011;2294;51.818;8.484;2022-12-04T14:47:55;44.67;;;17.37;;
4563;SDS011;2294;51.818;8.484;2022-12-04T14:50:33;42.67;;;17.17;;
4563;SDS011;2294;51.818;8.484;2022-12-04T14:53:10;32.03;;;16.00;;
4563;SDS011;2294;51.818;8.484;2022-12-04T14:55:50;39.77;;;16.93;;
4563;SDS011;2294;51.818;8.484;2022-12-04T14:58:21;38.43;;;19.30;;
4563;SDS011;2294;51.818;8.484;2022-12-04T15:00:55;36.80;;;17.97;;
4563;SDS011;2294;51.818;8.484;2022-12-04T15:03:23;35.67;;;17.80;;
4563;SDS011;2294;51.818;8.484;2022-12-04T15:06:00;37.50;;;18.53;;
4563;SDS011;2294;51.818;8.484;2022-12-04T15:08:28;43.00;;;17.80;;
4563;SDS011;2294;51.818;8.484;2022-12-04T15:10:56;37.07;;;16.90;;
4563;SDS011;2294;51.818;8.484;2022-12-04T15:13:41;37.47;;;16.90;;
4563;SDS011;2294;51.818;8.484;2022-12-04T15:16:08;50.97;;;18.40;;
4563;SDS011;2294;51.818;8.484;2022-12-04T15:18:40;33.50;;;16.30;;
4563;SDS011;2294;51.818;8.484;2022-12-04T15:21:08;38.47;;;18.53;;
4563;SDS011;2294;51.818;8.484;2022-12-04T15:23:37;37.20;;;17.07;;
4563;SDS011;2294;51.818;8.484;2022-12-04T15:26:08;47.40;;;18.07;;
4563;SDS011;2294;51.818;8.484;2022-12-04T15:28:39;46.80;;;16.10;;
4563;SDS011;2294;51.818;8.484;2022-12-04T15:31:09;37.40;;;18.20;;
4563;SDS011;2294;51.818;8.484;2022-12-04T15:33:39;43.43;;;18.40;;